createdAt,value
2023-02-11T00:00:18.048Z,2.78
2023-02-11T00:02:47.541Z,2.88
2023-02-11T00:05:14.405Z,2.13
2023-02-11T00:07:40.850Z,2.90
2023-02-11T00:10:08.514Z,2.50
2023-02-11T00:12:36.330Z,2.42
2023-02-11T00:15:03.445Z,3.00
2023-02-11T00:17:29.979Z,2.92
2023-02-11T00:19:56.482Z,2.92
2023-02-11T00:22:22.999Z,2.38
2023-02-11T00:24:49.547Z,2.78
2023-02-11T00:27:16.077Z,2.65
2023-02-11T00:29:42.520Z,2.53
2023-02-11T00:32:10.581Z,2.75
2023-02-11T00:34:38.056Z,2.70
2023-02-11T00:37:05.489Z,2.92
2023-02-11T00:39:32.539Z,2.47
2023-02-11T00:41:59.105Z,2.47
2023-02-11T00:44:25.594Z,2.00
2023-02-11T00:46:52.122Z,2.75
2023-02-11T00:49:18.612Z,2.50
2023-02-11T00:51:45.037Z,2.08
2023-02-11T00:54:12.326Z,2.15
2023-02-11T00:56:39.046Z,2.20
2023-02-11T00:59:05.589Z,1.90
2023-02-11T01:01:32.114Z,2.35
2023-02-11T01:03:58.638Z,2.67
2023-02-11T01:06:25.128Z,2.35
2023-02-11T01:08:51.703Z,2.97
2023-02-11T01:11:20.612Z,2.85
2023-02-11T01:13:48.560Z,2.08
2023-02-11T01:16:16.061Z,2.38
2023-02-11T01:18:44.215Z,2.33
2023-02-11T01:21:11.445Z,2.63
2023-02-11T01:23:37.941Z,2.20
2023-02-11T01:26:05.213Z,2.63
2023-02-11T01:28:31.922Z,2.97
2023-02-11T01:31:01.335Z,2.63
2023-02-11T01:33:28.092Z,2.50
2023-02-11T01:35:54.581Z,2.78
2023-02-11T01:38:26.129Z,2.83
2023-02-11T01:40:55.957Z,2.75
2023-02-11T01:43:24.093Z,2.80
2023-02-11T01:46:16.593Z,2.60
2023-02-11T01:48:47.180Z,2.50
2023-02-11T01:51:22.554Z,2.55
2023-02-11T01:54:08.794Z,2.38
2023-02-11T01:56:57.462Z,2.60
2023-02-11T01:59:32.085Z,2.33
2023-02-11T02:02:05.108Z,2.67
2023-02-11T02:04:39.880Z,2.65
2023-02-11T02:07:12.022Z,2.95
2023-02-11T02:09:43.087Z,2.97
2023-02-11T02:12:09.670Z,2.92
2023-02-11T02:14:41.126Z,2.97
2023-02-11T02:17:17.236Z,3.10
2023-02-11T02:20:05.537Z,3.35
2023-02-11T02:23:03.231Z,2.97
2023-02-11T02:25:32.377Z,2.55
2023-02-11T02:31:02.993Z,2.72
2023-02-11T02:33:46.322Z,2.72
2023-02-11T02:36:22.771Z,2.58
2023-02-11T02:39:05.670Z,2.90
2023-02-11T02:41:35.853Z,2.90
2023-02-11T02:44:02.553Z,3.15
2023-02-11T02:46:33.142Z,3.22
2023-02-11T02:49:00.467Z,2.63
2023-02-11T02:51:49.529Z,3.13
2023-02-11T02:54:35.785Z,2.95
2023-02-11T03:00:42.323Z,3.08
2023-02-11T03:03:20.355Z,2.90
2023-02-11T03:05:58.635Z,3.33
2023-02-11T03:08:34.468Z,3.22
2023-02-11T03:11:03.359Z,3.17
2023-02-11T03:13:33.712Z,3.55
2023-02-11T03:16:25.379Z,2.92
2023-02-11T03:19:00.150Z,3.03
2023-02-11T03:21:27.813Z,3.13
2023-02-11T03:23:56.614Z,2.67
2023-02-11T03:26:44.003Z,3.45
2023-02-11T03:29:19.963Z,3.08
2023-02-11T03:32:08.065Z,3.13
2023-02-11T03:34:57.539Z,3.90
2023-02-11T03:37:28.982Z,3.25
2023-02-11T03:40:17.341Z,3.15
2023-02-11T03:42:48.760Z,3.88
2023-02-11T03:45:19.886Z,3.10
2023-02-11T03:47:51.683Z,4.10
2023-02-11T03:50:19.647Z,3.80
2023-02-11T03:52:49.867Z,3.92
2023-02-11T03:55:19.168Z,4.65
2023-02-11T03:57:47.014Z,4.30
2023-02-11T04:00:14.367Z,3.97
2023-02-11T04:02:41.387Z,4.22
2023-02-11T04:05:10.666Z,4.50
2023-02-11T04:07:37.151Z,4.43
2023-02-11T04:10:04.455Z,5.03
2023-02-11T04:12:30.885Z,4.45
2023-02-11T04:14:57.344Z,3.97
2023-02-11T04:17:24.109Z,4.65
2023-02-11T04:19:50.512Z,5.15
2023-02-11T04:22:16.949Z,4.63
2023-02-11T04:24:44.089Z,4.68
2023-02-11T04:27:10.605Z,4.57
2023-02-11T04:29:38.128Z,5.03
2023-02-11T04:32:04.869Z,4.47
2023-02-11T04:34:31.606Z,5.22
2023-02-11T04:36:58.023Z,4.53
2023-02-11T04:39:24.588Z,5.25
2023-02-11T04:41:51.211Z,4.80
2023-02-11T04:44:17.684Z,5.60
2023-02-11T04:46:44.995Z,5.70
2023-02-11T04:49:16.263Z,6.43
2023-02-11T04:51:43.082Z,6.18
2023-02-11T04:54:09.522Z,6.50
2023-02-11T04:56:36.163Z,6.15
2023-02-11T04:59:03.846Z,6.40
2023-02-11T05:01:30.453Z,6.43
2023-02-11T05:03:57.971Z,6.90
2023-02-11T05:06:24.722Z,7.53
2023-02-11T05:08:51.343Z,8.27
2023-02-11T05:11:20.430Z,6.20
2023-02-11T05:13:47.309Z,7.00
2023-02-11T05:16:14.952Z,7.43
2023-02-11T05:18:42.937Z,7.57
2023-02-11T05:21:13.455Z,7.80
2023-02-11T05:23:40.697Z,7.18
2023-02-11T05:26:08.541Z,7.18
2023-02-11T05:28:36.189Z,7.38
2023-02-11T05:31:03.229Z,6.50
2023-02-11T05:33:29.886Z,7.35
2023-02-11T05:36:06.463Z,6.50
2023-02-11T05:38:33.315Z,7.43
2023-02-11T05:41:00.648Z,7.00
2023-02-11T05:43:27.654Z,7.20
2023-02-11T05:45:54.431Z,6.70
2023-02-11T05:48:21.144Z,7.22
2023-02-11T05:50:47.652Z,7.38
2023-02-11T05:53:14.345Z,7.07
2023-02-11T05:55:41.003Z,7.50
2023-02-11T05:58:08.507Z,6.95
2023-02-11T06:00:35.340Z,7.38
2023-02-11T06:03:01.938Z,7.60
2023-02-11T06:05:28.444Z,8.20
2023-02-11T06:07:54.958Z,7.70
2023-02-11T06:10:21.457Z,7.15
2023-02-11T06:12:48.401Z,8.07
2023-02-11T06:15:14.967Z,8.25
2023-02-11T06:17:41.374Z,8.43
2023-02-11T06:20:10.419Z,8.25
2023-02-11T06:22:37.031Z,8.27
2023-02-11T06:25:03.835Z,7.60
2023-02-11T06:27:30.688Z,8.43
2023-02-11T06:29:57.109Z,8.88
2023-02-11T06:32:42.707Z,8.02
2023-02-11T06:35:12.150Z,8.43
2023-02-11T06:37:39.171Z,8.38
2023-02-11T06:40:06.324Z,8.95
2023-02-11T06:42:32.824Z,8.98
2023-02-11T06:44:59.315Z,9.40
2023-02-11T06:47:25.867Z,10.13
2023-02-11T06:49:52.367Z,9.25
2023-02-11T06:52:18.804Z,8.93
2023-02-11T06:54:45.249Z,9.18
2023-02-11T06:57:11.682Z,9.35
2023-02-11T06:59:38.131Z,9.15
2023-02-11T07:02:04.615Z,9.93
2023-02-11T07:04:31.137Z,9.43
2023-02-11T07:06:57.644Z,9.60
2023-02-11T07:09:24.057Z,9.30
2023-02-11T07:11:50.498Z,8.85
2023-02-11T07:14:16.956Z,9.55
2023-02-11T07:16:43.431Z,9.88
2023-02-11T07:19:10.509Z,9.20
2023-02-11T07:21:37.235Z,9.32
2023-02-11T07:24:10.778Z,9.43
2023-02-11T07:26:37.628Z,10.43
2023-02-11T07:29:04.110Z,9.35
2023-02-11T07:31:30.992Z,9.30
2023-02-11T07:34:00.110Z,9.82
2023-02-11T07:38:53.958Z,9.60
2023-02-11T07:41:22.676Z,10.57
2023-02-11T07:43:49.840Z,9.88
2023-02-11T07:46:19.309Z,10.15
2023-02-11T07:48:45.856Z,10.57
2023-02-11T07:51:18.218Z,9.10
2023-02-11T07:53:45.253Z,9.85
2023-02-11T07:56:13.644Z,9.70
2023-02-11T07:58:42.110Z,9.23
2023-02-11T08:01:12.252Z,9.55
2023-02-11T08:03:39.363Z,10.88
2023-02-11T08:06:07.562Z,10.25
2023-02-11T08:08:34.261Z,10.60
2023-02-11T08:11:08.709Z,10.73
2023-02-11T08:13:35.783Z,9.85
2023-02-11T08:16:03.065Z,11.25
2023-02-11T08:18:30.399Z,9.52
2023-02-11T08:20:56.820Z,9.48
2023-02-11T08:23:23.254Z,9.77
2023-02-11T08:25:49.666Z,10.00
2023-02-11T08:28:16.154Z,10.57
2023-02-11T08:30:42.644Z,9.82
2023-02-11T08:33:09.123Z,10.38
2023-02-11T08:35:36.962Z,10.48
2023-02-11T08:38:03.438Z,10.60
2023-02-11T08:40:29.912Z,10.10
2023-02-11T08:42:56.435Z,10.50
2023-02-11T08:45:22.922Z,10.93
2023-02-11T08:47:49.344Z,9.93
2023-02-11T08:50:15.818Z,10.68
2023-02-11T08:52:43.037Z,11.45
2023-02-11T08:55:09.521Z,9.70
2023-02-11T08:57:36.081Z,10.73
2023-02-11T09:00:03.578Z,9.68
2023-02-11T09:02:30.082Z,10.18
2023-02-11T09:04:56.606Z,10.50
2023-02-11T09:07:23.077Z,10.50
2023-02-11T09:09:49.493Z,11.10
2023-02-11T09:12:15.983Z,9.30
2023-02-11T09:14:43.020Z,9.93
2023-02-11T09:17:09.668Z,9.95
2023-02-11T09:19:36.165Z,9.82
2023-02-11T09:22:02.649Z,9.27
2023-02-11T09:24:29.078Z,10.60
2023-02-11T09:26:55.554Z,9.48
2023-02-11T09:29:22.038Z,10.20
2023-02-11T09:31:48.813Z,9.70
2023-02-11T09:34:15.912Z,9.70
2023-02-11T09:36:42.448Z,9.43
2023-02-11T09:39:13.932Z,9.38
2023-02-11T09:42:01.524Z,10.10
2023-02-11T09:44:36.116Z,8.30
2023-02-11T09:47:07.126Z,8.35
2023-02-11T09:49:47.442Z,8.88
2023-02-11T09:52:25.354Z,8.60
2023-02-11T09:54:58.402Z,8.85
2023-02-11T09:57:36.493Z,7.75
2023-02-11T10:00:20.652Z,7.97
2023-02-11T10:03:26.807Z,8.48
2023-02-11T10:06:08.077Z,8.25
2023-02-11T10:08:56.859Z,8.77
2023-02-11T10:11:36.965Z,7.88
2023-02-11T10:14:28.789Z,8.00
2023-02-11T10:17:23.375Z,8.50
2023-02-11T10:20:11.530Z,7.43
2023-02-11T10:22:43.239Z,8.15
2023-02-11T10:25:40.283Z,7.70
2023-02-11T10:28:21.617Z,7.97
2023-02-11T10:30:57.618Z,8.13
2023-02-11T10:33:32.489Z,7.97
2023-02-11T10:38:30.931Z,7.05
2023-02-11T10:40:57.459Z,7.65
2023-02-11T10:43:27.330Z,7.35
2023-02-11T10:45:55.877Z,6.85
2023-02-11T10:48:40.420Z,6.80
2023-02-11T10:51:14.660Z,6.45
2023-02-11T10:53:41.866Z,6.85
2023-02-11T10:58:55.272Z,6.53
2023-02-11T11:01:24.869Z,5.78
2023-02-11T11:03:52.900Z,6.65
2023-02-11T11:06:31.554Z,6.10
2023-02-11T11:08:58.502Z,7.10
2023-02-11T11:11:26.489Z,6.82
2023-02-11T11:13:52.901Z,6.20
2023-02-11T11:16:29.662Z,6.30
2023-02-11T11:19:08.195Z,6.20
2023-02-11T11:21:46.328Z,6.38
2023-02-11T11:24:29.322Z,6.43
2023-02-11T11:26:59.602Z,6.82
2023-02-11T11:29:44.021Z,5.93
2023-02-11T11:32:20.738Z,7.13
2023-02-11T11:34:52.607Z,6.22
2023-02-11T11:37:24.493Z,6.13
2023-02-11T11:40:02.297Z,6.35
2023-02-11T11:42:33.954Z,5.65
2023-02-11T11:45:15.378Z,5.90
2023-02-11T11:47:44.562Z,5.85
2023-02-11T11:50:22.892Z,6.93
2023-02-11T11:53:00.129Z,6.10
2023-02-11T11:56:07.554Z,5.55
2023-02-11T11:58:34.747Z,4.85
2023-02-11T12:01:38.101Z,5.57
2023-02-11T12:04:17.772Z,5.55
2023-02-11T12:07:17.453Z,5.03
2023-02-11T12:09:55.883Z,5.15
2023-02-11T12:12:52.822Z,4.93
2023-02-11T12:15:30.245Z,4.78
2023-02-11T12:18:17.966Z,4.78
2023-02-11T12:21:09.716Z,4.70
2023-02-11T12:23:55.061Z,4.05
2023-02-11T12:26:40.251Z,3.83
2023-02-11T12:29:06.685Z,4.43
2023-02-11T12:31:50.775Z,4.70
2023-02-11T12:34:43.357Z,3.88
2023-02-11T12:37:31.029Z,3.83
2023-02-11T12:40:17.321Z,3.97
2023-02-11T12:43:17.749Z,4.13
2023-02-11T12:45:52.788Z,3.67
2023-02-11T12:48:40.867Z,4.10
2023-02-11T12:51:10.137Z,3.72
2023-02-11T12:53:45.476Z,3.63
2023-02-11T12:56:22.897Z,3.60
2023-02-11T12:58:54.204Z,4.18
2023-02-11T13:01:26.842Z,4.00
2023-02-11T13:04:16.514Z,4.05
2023-02-11T13:06:51.730Z,3.83
2023-02-11T13:09:42.028Z,3.90
2023-02-11T13:12:31.311Z,3.90
2023-02-11T13:15:05.422Z,3.63
2023-02-11T13:17:54.525Z,3.95
2023-02-11T13:20:35.248Z,4.13
2023-02-11T13:23:21.209Z,3.53
2023-02-11T13:26:02.552Z,4.07
2023-02-11T13:29:01.116Z,3.47
2023-02-11T13:31:29.982Z,3.45
2023-02-11T13:33:56.708Z,3.42
2023-02-11T13:36:25.827Z,3.25
2023-02-11T13:39:20.780Z,3.50
2023-02-11T13:41:52.470Z,3.45
2023-02-11T13:44:23.735Z,3.78
2023-02-11T13:47:10.480Z,3.75
2023-02-11T13:49:41.304Z,3.70
2023-02-11T13:52:39.528Z,3.78
2023-02-11T13:55:12.017Z,4.03
2023-02-11T13:57:40.414Z,4.85
2023-02-11T14:00:34.992Z,3.75
2023-02-11T14:03:29.122Z,3.58
2023-02-11T14:06:26.432Z,3.88
2023-02-11T14:09:17.276Z,3.97
2023-02-11T14:11:49.859Z,3.63
2023-02-11T14:14:27.496Z,3.50
2023-02-11T14:17:00.026Z,3.20
2023-02-11T14:19:38.521Z,3.67
2023-02-11T14:22:08.173Z,3.60
2023-02-11T14:24:34.823Z,4.18
2023-02-11T14:27:28.158Z,3.78
2023-02-11T14:30:09.305Z,4.03
2023-02-11T14:32:45.680Z,3.95
2023-02-11T14:35:34.913Z,4.05
2023-02-11T14:38:33.999Z,3.95
2023-02-11T14:41:25.242Z,3.60
2023-02-11T14:44:11.121Z,3.38
2023-02-11T14:46:37.820Z,3.88
2023-02-11T14:49:05.502Z,3.97
2023-02-11T14:51:36.411Z,4.15
2023-02-11T14:54:13.300Z,3.78
2023-02-11T14:56:39.781Z,3.78
2023-02-11T14:59:22.394Z,3.30
2023-02-11T15:01:50.779Z,3.38
2023-02-11T15:04:28.026Z,3.92
2023-02-11T15:06:57.439Z,3.50
2023-02-11T15:09:33.946Z,3.78
2023-02-11T15:12:00.900Z,3.63
2023-02-11T15:14:33.392Z,3.53
2023-02-11T15:17:03.702Z,3.78
2023-02-11T15:19:35.716Z,3.80
2023-02-11T15:22:24.770Z,3.80
2023-02-11T15:25:07.973Z,3.50
2023-02-11T15:27:42.221Z,3.42
2023-02-11T15:30:20.996Z,3.80
2023-02-11T15:32:48.775Z,4.20
2023-02-11T15:35:15.311Z,3.88
2023-02-11T15:37:42.006Z,3.53
2023-02-11T15:40:18.826Z,3.20
2023-02-11T15:43:04.926Z,3.45
2023-02-11T15:45:35.944Z,4.00
2023-02-11T15:48:14.305Z,3.72
2023-02-11T15:50:50.098Z,3.70
2023-02-11T15:53:30.577Z,3.63
2023-02-11T15:56:02.895Z,3.63
2023-02-11T15:58:29.540Z,3.20
2023-02-11T16:00:59.682Z,4.05
2023-02-11T16:03:32.393Z,3.47
2023-02-11T16:06:20.105Z,3.40
2023-02-11T16:09:16.940Z,3.40
2023-02-11T16:11:46.222Z,3.50
2023-02-11T16:14:27.139Z,3.58
2023-02-11T16:16:58.700Z,3.53
2023-02-11T16:19:27.093Z,3.28
2023-02-11T16:21:56.085Z,3.45
2023-02-11T16:26:57.006Z,3.40
2023-02-11T16:29:27.110Z,3.45
2023-02-11T16:32:05.655Z,4.25
2023-02-11T16:34:32.113Z,3.67
2023-02-11T16:36:58.791Z,3.72
2023-02-11T16:39:25.301Z,3.33
2023-02-11T16:41:52.358Z,3.13
2023-02-11T16:44:19.307Z,3.38
2023-02-11T16:46:46.081Z,3.22
2023-02-11T16:49:20.415Z,3.05
2023-02-11T16:51:49.874Z,3.47
2023-02-11T16:54:18.207Z,3.50
2023-02-11T16:56:45.228Z,3.55
2023-02-11T16:59:12.443Z,3.72
2023-02-11T17:01:40.845Z,3.30
2023-02-11T17:04:10.634Z,3.50
2023-02-11T17:06:37.161Z,3.30
2023-02-11T17:09:05.688Z,3.42
2023-02-11T17:11:32.168Z,3.58
2023-02-11T17:13:58.824Z,3.60
2023-02-11T17:16:26.248Z,3.15
2023-02-11T17:18:52.855Z,3.67
2023-02-11T17:21:19.390Z,3.80
2023-02-11T17:23:46.008Z,3.72
2023-02-11T17:26:12.515Z,4.05
2023-02-11T17:28:39.004Z,3.60
2023-02-11T17:31:09.532Z,3.33
2023-02-11T17:33:37.800Z,3.72
2023-02-11T17:36:08.596Z,3.55
2023-02-11T17:38:36.486Z,4.03
2023-02-11T17:41:04.788Z,3.78
2023-02-11T17:43:31.860Z,3.95
2023-02-11T17:45:58.481Z,4.57
2023-02-11T17:48:25.023Z,4.03
2023-02-11T17:50:51.502Z,4.47
2023-02-11T17:53:17.998Z,7.40
2023-02-11T17:55:44.647Z,4.60
2023-02-11T17:58:11.216Z,14.80
2023-02-11T18:00:37.747Z,7.30
2023-02-11T18:03:04.374Z,5.15
2023-02-11T18:05:35.731Z,4.68
2023-02-11T18:08:03.178Z,4.28
2023-02-11T18:10:29.753Z,5.72
2023-02-11T18:12:56.298Z,5.05
2023-02-11T18:15:23.249Z,4.63
2023-02-11T18:17:49.773Z,4.40
2023-02-11T18:20:16.324Z,4.22
2023-02-11T18:22:44.129Z,4.85
2023-02-11T18:25:14.768Z,4.25
2023-02-11T18:27:41.847Z,4.65
2023-02-11T18:30:14.051Z,4.55
2023-02-11T18:32:40.567Z,4.10
2023-02-11T18:35:14.856Z,4.75
2023-02-11T18:37:42.632Z,4.50
2023-02-11T18:40:10.419Z,4.88
2023-02-11T18:42:37.026Z,4.82
2023-02-11T18:45:05.441Z,5.30
2023-02-11T18:47:32.342Z,5.57
2023-02-11T18:49:58.969Z,5.35
2023-02-11T18:52:25.969Z,4.60
2023-02-11T18:54:52.457Z,5.07
2023-02-11T18:57:18.887Z,4.70
2023-02-11T18:59:45.392Z,4.88
2023-02-11T19:02:12.038Z,5.22
2023-02-11T19:04:38.558Z,5.20
2023-02-11T19:07:05.196Z,5.18
2023-02-11T19:09:31.814Z,4.63
2023-02-11T19:12:00.785Z,8.23
2023-02-11T19:16:57.399Z,5.07
2023-02-11T19:19:26.806Z,4.60
2023-02-11T19:21:53.941Z,5.10
2023-02-11T19:24:21.952Z,4.72
2023-02-11T19:26:49.743Z,4.82
2023-02-11T19:29:16.789Z,4.70
2023-02-11T19:31:44.174Z,4.95
2023-02-11T19:34:15.357Z,4.43
2023-02-11T19:36:42.349Z,4.88
2023-02-11T19:39:09.619Z,4.78
2023-02-11T19:41:36.498Z,4.90
2023-02-11T19:44:04.630Z,4.28
2023-02-11T19:46:33.611Z,4.80
2023-02-11T19:51:28.034Z,4.43
2023-02-11T19:53:54.497Z,4.97
2023-02-11T19:56:22.364Z,4.93
2023-02-11T19:58:48.915Z,6.43
2023-02-11T20:01:18.853Z,5.90
2023-02-11T20:03:49.802Z,4.90
2023-02-11T20:06:23.379Z,4.55
2023-02-11T20:08:58.226Z,5.07
2023-02-11T20:11:25.805Z,4.85
2023-02-11T20:13:52.235Z,4.90
2023-02-11T20:16:21.435Z,4.80
2023-02-11T20:18:49.872Z,4.82
2023-02-11T20:21:18.545Z,4.68
2023-02-11T20:23:46.433Z,4.88
2023-02-11T20:26:21.499Z,4.68
2023-02-11T20:28:49.477Z,4.90
2023-02-11T20:31:16.829Z,4.88
2023-02-11T20:33:44.234Z,4.60
2023-02-11T20:36:20.292Z,4.82
2023-02-11T20:38:47.928Z,4.75
2023-02-11T20:41:26.580Z,4.93
2023-02-11T20:43:54.948Z,5.15
2023-02-11T20:46:24.738Z,5.10
2023-02-11T20:48:52.239Z,4.85
2023-02-11T20:51:23.451Z,4.82
2023-02-11T20:53:51.219Z,4.32
2023-02-11T20:56:21.513Z,5.05
2023-02-11T20:58:48.892Z,5.13
2023-02-11T21:01:21.359Z,5.18
2023-02-11T21:03:58.074Z,5.20
2023-02-11T21:06:27.534Z,5.13
2023-02-11T21:08:54.194Z,4.95
2023-02-11T21:11:21.085Z,5.15
2023-02-11T21:13:48.665Z,4.55
2023-02-11T21:16:22.374Z,4.90
2023-02-11T21:18:50.163Z,5.25
2023-02-11T21:21:18.272Z,5.50
2023-02-11T21:23:45.884Z,5.18
2023-02-11T21:26:13.016Z,4.72
2023-02-11T21:28:41.076Z,5.07
2023-02-11T21:31:09.524Z,5.00
2023-02-11T21:33:36.034Z,4.95
2023-02-11T21:36:04.426Z,4.93
2023-02-11T21:38:30.927Z,4.88
2023-02-11T21:41:03.380Z,5.15
2023-02-11T21:43:29.944Z,4.88
2023-02-11T21:45:56.692Z,5.05
2023-02-11T21:48:25.552Z,4.05
2023-02-11T21:50:52.883Z,4.75
2023-02-11T21:53:19.756Z,4.20
2023-02-11T21:55:46.219Z,5.35
2023-02-11T21:58:13.154Z,5.28
2023-02-11T22:00:39.628Z,4.93
2023-02-11T22:03:06.200Z,5.07
2023-02-11T22:05:32.702Z,4.80
2023-02-11T22:07:59.233Z,5.05
2023-02-11T22:10:25.645Z,5.05
2023-02-11T22:12:52.119Z,4.43
2023-02-11T22:15:18.699Z,4.97
2023-02-11T22:17:45.191Z,5.10
2023-02-11T22:20:11.939Z,5.40
2023-02-11T22:22:38.449Z,5.18
2023-02-11T22:25:05.396Z,5.05
2023-02-11T22:27:31.963Z,4.85
2023-02-11T22:29:58.385Z,5.47
2023-02-11T22:32:24.871Z,5.90
2023-02-11T22:34:53.284Z,6.03
2023-02-11T22:37:20.451Z,6.57
2023-02-11T22:39:47.203Z,6.40
2023-02-11T22:42:13.649Z,6.25
2023-02-11T22:44:40.091Z,7.07
2023-02-11T22:47:06.668Z,6.78
2023-02-11T22:49:33.212Z,7.05
2023-02-11T22:51:59.938Z,7.20
2023-02-11T22:54:26.617Z,7.20
2023-02-11T22:56:53.568Z,7.10
2023-02-11T22:59:20.596Z,7.72
2023-02-11T23:01:47.197Z,7.30
2023-02-11T23:04:16.819Z,6.82
2023-02-11T23:06:43.424Z,6.88
2023-02-11T23:09:12.272Z,7.28
2023-02-11T23:14:05.899Z,7.07
2023-02-11T23:16:34.522Z,7.28
2023-02-11T23:19:04.979Z,7.15
2023-02-11T23:21:33.457Z,6.72
2023-02-11T23:24:05.812Z,6.85
2023-02-11T23:26:32.352Z,7.10
2023-02-11T23:28:59.409Z,7.22
2023-02-11T23:31:29.645Z,7.05
2023-02-11T23:33:56.378Z,7.25
2023-02-11T23:36:23.556Z,7.40
2023-02-11T23:38:50.147Z,7.70
2023-02-11T23:41:17.567Z,6.55
2023-02-11T23:43:48.703Z,6.97
2023-02-11T23:46:15.190Z,7.93
2023-02-11T23:48:41.709Z,7.43
2023-02-11T23:51:09.732Z,6.95
2023-02-11T23:53:38.075Z,6.65
2023-02-11T23:56:15.067Z,6.90
2023-02-11T23:58:41.677Z,6.63
